Time,TemperatureF,DewpointF,PressureIn,WindDirection,WindDirectionDegrees,WindSpeedMPH,WindSpeedGustMPH,Humidity,HourlyPrecipIn,Conditions,Clouds,dailyrainin,SolarRadiationWatts/m^2,SoftwareType,DateUTC
2013-01-19 00:12:00,31.0,29.0,-100.00,SW,218,3.0,6.0,94,0.00,,,0.00,1.000000,,2013-01-19 06:12:00,
2013-01-19 00:22:00,31.0,29.0,-100.00,SW,218,3.0,6.0,94,0.00,,,0.00,1.000000,,2013-01-19 06:22:00,
2013-01-19 00:32:00,31.0,29.0,-100.00,SW,218,3.0,6.0,94,0.00,,,0.00,1.000000,,2013-01-19 06:32:00,
2013-01-19 00:43:00,31.0,29.0,-100.00,SW,218,3.0,6.0,94,0.00,,,0.00,1.000000,,2013-01-19 06:43:00,
2013-01-19 01:12:00,29.0,29.0,-100.00,SSE,160,2.0,5.0,99,0.00,,,0.00,1.000000,,2013-01-19 07:12:00,
2013-01-19 01:22:00,29.0,29.0,-100.00,SSE,160,2.0,5.0,99,0.00,,,0.00,1.000000,,2013-01-19 07:22:00,
2013-01-19 01:33:00,29.0,29.0,-100.00,SSE,160,2.0,5.0,99,0.00,,,0.00,1.000000,,2013-01-19 07:33:00,
2013-01-19 01:42:00,29.0,29.0,-100.00,SSE,160,2.0,5.0,99,0.00,,,0.00,1.000000,,2013-01-19 07:42:00,
2013-01-19 02:12:00,28.0,28.0,-100.00,ESE,118,1.0,1.0,100,0.00,,,0.00,1.000000,,2013-01-19 08:12:00,
2013-01-19 02:22:00,28.0,28.0,-100.00,ESE,118,1.0,1.0,100,0.00,,,0.00,1.000000,,2013-01-19 08:22:00,
2013-01-19 02:32:00,28.0,28.0,-100.00,ESE,118,1.0,1.0,100,0.00,,,0.00,1.000000,,2013-01-19 08:32:00,
2013-01-19 02:43:00,28.0,28.0,-100.00,ESE,118,1.0,1.0,100,0.00,,,0.00,1.000000,,2013-01-19 08:43:00,
2013-01-19 03:12:00,29.0,29.0,-100.00,South,185,4.0,6.0,100,0.00,,,0.00,1.000000,,2013-01-19 09:12:00,
2013-01-19 03:23:00,29.0,29.0,-100.00,South,185,4.0,6.0,100,0.00,,,0.00,1.000000,,2013-01-19 09:23:00,
2013-01-19 03:33:00,29.0,29.0,-100.00,South,185,4.0,6.0,100,0.00,,,0.00,1.000000,,2013-01-19 09:33:00,
2013-01-19 03:42:00,29.0,29.0,-100.00,South,185,4.0,6.0,100,0.00,,,0.00,1.000000,,2013-01-19 09:42:00,
2013-01-19 04:12:00,28.0,28.0,-100.00,South,171,5.0,7.0,100,0.00,,,0.00,1.000000,,2013-01-19 10:12:00,
2013-01-19 04:22:00,28.0,28.0,-100.00,South,171,5.0,7.0,100,0.00,,,0.00,1.000000,,2013-01-19 10:22:00,
2013-01-19 04:32:00,28.0,28.0,-100.00,South,171,5.0,7.0,100,0.00,,,0.00,1.000000,,2013-01-19 10:32:00,
2013-01-19 04:42:00,28.0,28.0,-100.00,South,171,5.0,7.0,100,0.00,,,0.00,1.000000,,2013-01-19 10:42:00,
2013-01-19 05:12:00,28.0,28.0,-100.00,SSE,151,3.0,6.0,100,0.00,,,0.00,1.000000,,2013-01-19 11:12:00,
2013-01-19 06:48:00,29.0,29.0,-100.00,WSW,242,4.0,8.0,100,0.00,,,0.00,1.000000,,2013-01-19 12:48:00,
2013-01-19 07:12:00,29.0,29.0,-100.00,SSW,209,5.0,7.0,100,0.00,,,0.00,1.000000,,2013-01-19 13:12:00,
2013-01-19 07:22:00,29.0,29.0,-100.00,SSW,209,5.0,7.0,100,0.00,,,0.00,1.000000,,2013-01-19 13:22:00,
2013-01-19 07:33:00,29.0,29.0,-100.00,SSW,209,5.0,7.0,100,0.00,,,0.00,1.000000,,2013-01-19 13:33:00,
2013-01-19 07:42:00,29.0,29.0,-100.00,SSW,209,5.0,7.0,100,0.00,,,0.00,1.000000,,2013-01-19 13:42:00,
2013-01-19 08:12:00,32.0,32.0,-100.00,West,262,6.0,10.0,99,0.00,,,0.00,1.000000,,2013-01-19 14:12:00,
2013-01-19 08:23:00,32.0,32.0,-100.00,West,262,6.0,10.0,99,0.00,,,0.00,1.000000,,2013-01-19 14:23:00,
2013-01-19 08:34:00,32.0,32.0,-100.00,West,262,6.0,10.0,99,0.00,,,0.00,1.000000,,2013-01-19 14:34:00,
2013-01-19 08:43:00,32.0,32.0,-100.00,West,262,6.0,10.0,99,0.00,,,0.00,1.000000,,2013-01-19 14:43:00,
2013-01-19 09:13:00,34.0,31.0,-100.00,West,259,7.0,11.0,89,0.00,,,0.00,21.000000,,2013-01-19 15:13:00,
2013-01-19 09:23:00,34.0,31.0,-100.00,West,259,7.0,11.0,89,0.00,,,0.00,21.000000,,2013-01-19 15:23:00,
2013-01-19 09:33:00,34.0,31.0,-100.00,West,259,7.0,11.0,89,0.00,,,0.00,21.000000,,2013-01-19 15:33:00,
2013-01-19 09:43:00,34.0,31.0,-100.00,West,259,7.0,11.0,89,0.00,,,0.00,21.000000,,2013-01-19 15:43:00,
2013-01-19 10:13:00,35.0,31.0,-100.00,West,262,6.0,12.0,84,0.00,,,0.00,56.000000,,2013-01-19 16:13:00,
2013-01-19 10:23:00,35.0,31.0,-100.00,West,262,6.0,12.0,84,0.00,,,0.00,56.000000,,2013-01-19 16:23:00,
2013-01-19 10:33:00,35.0,31.0,-100.00,West,262,6.0,12.0,84,0.00,,,0.00,56.000000,,2013-01-19 16:33:00,
2013-01-19 10:43:00,35.0,31.0,-100.00,West,262,6.0,12.0,84,0.00,,,0.00,56.000000,,2013-01-19 16:43:00,
2013-01-19 11:20:00,36.0,30.0,-100.00,WNW,297,9.0,14.0,78,0.00,,,0.00,116.000000,,2013-01-19 17:20:00,
2013-01-19 11:28:00,36.0,30.0,-100.00,WNW,297,9.0,14.0,78,0.00,,,0.00,116.000000,,2013-01-19 17:28:00,
2013-01-19 11:35:00,36.0,30.0,-100.00,WNW,297,9.0,14.0,78,0.00,,,0.00,116.000000,,2013-01-19 17:35:00,
2013-01-19 11:47:00,36.0,30.0,-100.00,WNW,297,9.0,14.0,78,0.00,,,0.00,116.000000,,2013-01-19 17:47:00,
2013-01-19 12:14:00,38.0,31.0,-100.00,West,281,10.0,15.0,76,0.00,,,0.00,174.000000,,2013-01-19 18:14:00,
2013-01-19 12:26:00,38.0,31.0,-100.00,West,281,10.0,15.0,76,0.00,,,0.00,174.000000,,2013-01-19 18:26:00,
2013-01-19 12:35:00,38.0,31.0,-100.00,West,281,10.0,15.0,76,0.00,,,0.00,174.000000,,2013-01-19 18:35:00,
2013-01-19 12:45:00,38.0,31.0,-100.00,West,281,10.0,15.0,76,0.00,,,0.00,174.000000,,2013-01-19 18:45:00,
2013-01-19 13:20:00,38.0,30.0,-100.00,WNW,288,12.0,19.0,72,0.00,,,0.00,308.000000,,2013-01-19 19:20:00,
2013-01-19 13:29:00,38.0,30.0,-100.00,WNW,288,12.0,19.0,72,0.00,,,0.00,308.000000,,2013-01-19 19:29:00,
2013-01-19 13:39:00,38.0,30.0,-100.00,WNW,288,12.0,19.0,72,0.00,,,0.00,308.000000,,2013-01-19 19:39:00,
2013-01-19 13:45:00,38.0,30.0,-100.00,WNW,288,12.0,19.0,72,0.00,,,0.00,308.000000,,2013-01-19 19:45:00,
2013-01-19 14:19:00,38.0,30.0,-100.00,West,276,15.0,21.0,74,0.00,,,0.00,229.000000,,2013-01-19 20:19:00,
2013-01-19 14:25:00,38.0,30.0,-100.00,West,276,15.0,21.0,74,0.00,,,0.00,229.000000,,2013-01-19 20:25:00,
2013-01-19 14:38:00,38.0,30.0,-100.00,West,276,15.0,21.0,74,0.00,,,0.00,229.000000,,2013-01-19 20:38:00,
2013-01-19 14:47:00,38.0,30.0,-100.00,West,276,15.0,21.0,74,0.00,,,0.00,229.000000,,2013-01-19 20:47:00,
2013-01-19 14:49:00,31.0,26.0,-100.00,WNW,300,22.0,36.0,80,0.00,,,0.00,130.000000,,2013-01-19 20:49:00,
2013-01-19 15:14:00,31.0,26.0,-100.00,WNW,300,22.0,36.0,80,0.00,,,0.00,130.000000,,2013-01-19 21:14:00,
2013-01-19 15:26:00,31.0,26.0,-100.00,WNW,300,22.0,36.0,80,0.00,,,0.00,130.000000,,2013-01-19 21:26:00,
2013-01-19 15:43:00,31.0,26.0,-100.00,WNW,300,22.0,36.0,80,0.00,,,0.00,130.000000,,2013-01-19 21:43:00,
2013-01-19 16:18:00,20.0,9.0,-100.00,WNW,299,30.0,46.0,62,0.00,,,0.00,234.000000,,2013-01-19 22:18:00,
2013-01-19 16:27:00,20.0,9.0,-100.00,WNW,299,30.0,46.0,62,0.00,,,0.00,234.000000,,2013-01-19 22:27:00,
2013-01-19 16:34:00,20.0,9.0,-100.00,WNW,299,30.0,46.0,62,0.00,,,0.00,234.000000,,2013-01-19 22:34:00,
2013-01-19 16:46:00,20.0,9.0,-100.00,WNW,299,30.0,46.0,62,0.00,,,0.00,234.000000,,2013-01-19 22:46:00,
2013-01-19 17:15:00,17.0,4.0,-100.00,WNW,302,28.0,48.0,56,0.00,,,0.00,85.000000,,2013-01-19 23:15:00,
2013-01-19 17:25:00,17.0,4.0,-100.00,WNW,302,28.0,48.0,56,0.00,,,0.00,85.000000,,2013-01-19 23:25:00,
2013-01-19 17:34:00,17.0,4.0,-100.00,WNW,302,28.0,48.0,56,0.00,,,0.00,85.000000,,2013-01-19 23:34:00,
2013-01-19 17:45:00,17.0,4.0,-100.00,WNW,302,28.0,48.0,56,0.00,,,0.00,85.000000,,2013-01-19 23:45:00,
2013-01-19 18:15:00,12.0,-2.0,-100.00,WNW,301,24.0,43.0,52,0.00,,,0.00,4.000000,,2013-01-20 00:15:00,
2013-01-19 18:25:00,12.0,-2.0,-100.00,WNW,301,24.0,43.0,52,0.00,,,0.00,4.000000,,2013-01-20 00:25:00,
2013-01-19 18:35:00,12.0,-2.0,-100.00,WNW,301,24.0,43.0,52,0.00,,,0.00,4.000000,,2013-01-20 00:35:00,
2013-01-19 19:20:00,9.0,-3.0,-100.00,WNW,298,23.0,37.0,57,0.00,,,-99.99,1.000000,,2013-01-20 01:20:00,
2013-01-19 19:36:00,9.0,-3.0,-100.00,WNW,298,23.0,37.0,57,0.00,,,-99.99,1.000000,,2013-01-20 01:36:00,
2013-01-19 19:46:00,9.0,-3.0,-100.00,WNW,298,23.0,37.0,57,0.00,,,-99.99,1.000000,,2013-01-20 01:46:00,
2013-01-19 20:15:00,7.0,-4.0,-100.00,NW,311,21.0,35.0,60,0.00,,,0.00,1.000000,,2013-01-20 02:15:00,
2013-01-19 20:26:00,7.0,-4.0,-100.00,NW,311,21.0,35.0,60,0.00,,,0.00,1.000000,,2013-01-20 02:26:00,
2013-01-19 20:35:00,7.0,-4.0,-100.00,NW,311,21.0,35.0,60,0.00,,,0.00,1.000000,,2013-01-20 02:35:00,
2013-01-19 20:44:00,7.0,-4.0,-100.00,NW,311,21.0,35.0,60,0.00,,,0.00,1.000000,,2013-01-20 02:44:00,
2013-01-19 21:14:00,5.0,-7.0,-100.00,NW,312,20.0,32.0,57,0.00,,,0.00,1.000000,,2013-01-20 03:14:00,
2013-01-19 21:25:00,5.0,-7.0,-100.00,NW,312,20.0,32.0,57,0.00,,,0.00,1.000000,,2013-01-20 03:25:00,
2013-01-19 21:38:00,5.0,-7.0,-100.00,NW,312,20.0,32.0,57,0.00,,,0.00,1.000000,,2013-01-20 03:38:00,
2013-01-19 21:45:00,5.0,-7.0,-100.00,NW,312,20.0,32.0,57,0.00,,,0.00,1.000000,,2013-01-20 03:45:00,
2013-01-19 22:15:00,3.0,-8.0,-100.00,NW,306,14.0,26.0,60,0.00,,,0.00,1.000000,,2013-01-20 04:15:00,
2013-01-19 22:25:00,3.0,-8.0,-100.00,NW,306,14.0,26.0,60,0.00,,,0.00,1.000000,,2013-01-20 04:25:00,
2013-01-19 22:35:00,3.0,-8.0,-100.00,NW,306,14.0,26.0,60,0.00,,,0.00,1.000000,,2013-01-20 04:35:00,
2013-01-19 22:44:00,3.0,-8.0,-100.00,NW,306,14.0,26.0,60,0.00,,,0.00,1.000000,,2013-01-20 04:44:00,
2013-01-19 23:12:00,2.0,-7.0,-100.00,NW,314,14.0,28.0,64,0.00,,,0.00,1.000000,,2013-01-20 05:12:00,
2013-01-19 23:22:00,2.0,-7.0,-100.00,NW,314,14.0,28.0,64,0.00,,,0.00,1.000000,,2013-01-20 05:22:00,
2013-01-19 23:32:00,2.0,-7.0,-100.00,NW,314,14.0,28.0,64,0.00,,,0.00,1.000000,,2013-01-20 05:32:00,
2013-01-19 23:42:00,2.0,-7.0,-100.00,NW,314,14.0,28.0,64,0.00,,,0.00,1.000000,,2013-01-20 05:42:00,